Time;durP1;ratioP1;P1;durP2;ratioP2;P2;SDS_P1;SDS_P2;PMS_P1;PMS_P2;Temp;Humidity;BMP_temperature;BMP_pressure;BME280_temperature;BME280_humidity;BME280_pressure;Samples;Min_cycle;Max_cycle;Signal;HPM_P1;HPM_P2
2023/08/05 00:00:02;;;;;;;5.25;2.50;;;15.20;99.90;;;;;;5031390;28;20134;-71
2023/08/05 00:02:28;;;;;;;;;;;15.20;99.90;;;;;;5025647;28;20503;-71
2023/08/05 00:04:53;;;;;;;8.60;3.22;;;15.20;99.90;;;;;;5014068;28;20086;-71
2023/08/05 00:07:19;;;;;;;4.90;2.90;;;15.20;99.90;;;;;;5030344;28;20075;-71
2023/08/05 00:09:45;;;;;;;5.78;2.78;;;15.20;99.90;;;;;;5024656;28;20041;-71
2023/08/05 00:12:10;;;;;;;6.25;3.13;;;15.20;99.90;;;;;;5051232;28;20041;-71
2023/08/05 00:14:36;;;;;;;7.68;3.25;;;15.20;99.90;;;;;;5049198;28;20110;-71
2023/08/05 00:17:02;;;;;;;5.82;2.88;;;15.20;99.90;;;;;;5040603;28;20124;-71
2023/08/05 00:19:28;;;;;;;6.95;3.28;;;15.20;99.90;;;;;;5049255;28;20380;-71
2023/08/05 00:21:53;;;;;;;5.65;2.55;;;15.10;99.90;;;;;;5049106;28;20525;-71
2023/08/05 00:24:19;;;;;;;7.00;2.83;;;15.10;99.90;;;;;;5048524;28;20040;-71
2023/08/05 00:26:45;;;;;;;5.05;2.63;;;15.00;99.90;;;;;;5050292;28;20414;-71
2023/08/05 00:29:10;;;;;;;4.85;2.80;;;15.00;99.90;;;;;;5049217;28;20045;-71
2023/08/05 00:31:36;;;;;;;4.43;2.50;;;14.90;99.90;;;;;;5031114;28;20041;-71
2023/08/05 00:34:02;;;;;;;8.07;3.30;;;14.90;99.90;;;;;;5031529;28;20126;-71
2023/08/05 00:36:27;;;;;;;6.65;2.60;;;14.80;99.90;;;;;;5012094;28;20127;-71
2023/08/05 00:38:53;;;;;;;5.72;2.83;;;14.80;99.90;;;;;;5048900;28;20077;-71
2023/08/05 00:41:19;;;;;;;10.10;3.38;;;14.80;99.90;;;;;;5029330;28;20069;-71
2023/08/05 00:43:44;;;;;;;7.50;3.22;;;14.80;99.90;;;;;;5029418;28;20045;-71
2023/08/05 00:46:11;;;;;;;8.13;2.97;;;14.70;99.90;;;;;;5041932;28;20040;-71
2023/08/05 00:48:37;;;;;;;5.95;2.70;;;14.70;99.90;;;;;;5030708;28;20094;-71
2023/08/05 00:51:05;;;;;;;8.13;3.45;;;14.70;99.90;;;;;;5023940;28;20037;-71
2023/08/05 00:53:32;;;;;;;9.52;3.47;;;14.60;99.90;;;;;;5043354;28;20134;-71
2023/08/05 00:55:57;;;;;;;6.70;2.78;;;14.60;99.90;;;;;;5028021;28;20036;-71
2023/08/05 00:58:23;;;;;;;7.53;3.10;;;14.60;99.90;;;;;;5028911;28;20045;-71
2023/08/05 01:00:49;;;;;;;6.75;3.20;;;14.60;99.90;;;;;;5027862;28;20044;-71
2023/08/05 01:03:15;;;;;;;5.63;2.70;;;14.60;99.90;;;;;;5049232;28;20195;-71
2023/08/05 01:05:41;;;;;;;;;;;14.60;99.90;;;;;;5029597;28;20384;-71
2023/08/05 01:08:08;;;;;;;7.15;3.28;;;14.50;99.90;;;;;;5028610;28;19924;-71
2023/08/05 01:10:33;;;;;;;9.63;3.08;;;14.50;99.90;;;;;;5029774;28;20049;-71
2023/08/05 01:12:59;;;;;;;4.75;2.55;;;14.50;99.90;;;;;;5044890;28;20048;-71
2023/08/05 01:15:25;;;;;;;4.93;2.92;;;14.50;99.90;;;;;;5027285;28;20521;-70
2023/08/05 01:17:53;;;;;;;6.85;3.25;;;14.50;99.90;;;;;;5030775;28;20425;-71
2023/08/05 01:20:23;;;;;;;8.00;2.75;;;14.50;99.90;;;;;;5029797;28;20499;-71
2023/08/05 01:23:06;;;;;;;5.18;2.72;;;14.50;99.90;;;;;;5029067;28;20045;-71
2023/08/05 01:25:34;;;;;;;5.70;3.20;;;14.50;99.90;;;;;;5025140;28;20045;-71
2023/08/05 01:28:01;;;;;;;6.35;3.00;;;14.50;99.90;;;;;;5047426;28;20665;-71
2023/08/05 01:30:29;;;;;;;6.20;2.92;;;14.50;99.90;;;;;;5023934;28;21008;-71
2023/08/05 01:32:57;;;;;;;5.85;3.13;;;14.50;99.90;;;;;;5028901;28;20060;-70
2023/08/05 01:35:23;;;;;;;5.93;2.83;;;14.50;99.90;;;;;;5045080;28;20491;-71
2023/08/05 01:37:49;;;;;;;;;;;14.50;99.90;;;;;;5030468;28;20048;-71
2023/08/05 01:40:15;;;;;;;7.00;2.60;;;14.50;99.90;;;;;;5029435;28;19917;-71
2023/08/05 01:42:41;;;;;;;5.35;2.75;;;14.50;99.90;;;;;;5042825;28;21047;-71
2023/08/05 01:45:07;;;;;;;5.13;2.53;;;14.50;99.90;;;;;;5009232;28;20049;-72
2023/08/05 01:47:33;;;;;;;;;;;14.50;99.90;;;;;;5047372;28;20514;-72
2023/08/05 01:49:59;;;;;;;8.45;2.78;;;14.40;99.90;;;;;;5047146;28;19916;-72
2023/08/05 01:52:25;;;;;;;8.38;3.17;;;14.40;99.90;;;;;;5040861;28;20080;-72
2023/08/05 01:54:51;;;;;;;5.20;3.13;;;14.50;99.90;;;;;;5048278;28;20455;-72
2023/08/05 01:57:16;;;;;;;6.78;3.15;;;14.50;99.90;;;;;;5046816;28;20037;-72
2023/08/05 01:59:42;;;;;;;6.45;2.75;;;14.50;99.90;;;;;;5024614;28;20556;-71
2023/08/05 02:02:08;;;;;;;6.72;3.13;;;14.50;99.90;;;;;;5028826;28;20071;-72
2023/08/05 02:04:33;;;;;;;5.00;3.17;;;14.50;99.90;;;;;;5029062;28;20470;-72
2023/08/05 02:06:59;;;;;;;5.53;3.05;;;14.50;99.90;;;;;;5029858;28;20048;-72
2023/08/05 02:09:25;;;;;;;7.55;2.92;;;14.50;99.90;;;;;;5022518;28;20239;-72
2023/08/05 02:11:50;;;;;;;8.48;3.40;;;14.40;99.90;;;;;;5028191;28;20041;-72
2023/08/05 02:14:16;;;;;;;5.18;2.97;;;14.40;99.90;;;;;;5027929;28;20041;-71
2023/08/05 02:16:42;;;;;;;7.75;3.38;;;14.40;99.90;;;;;;5026944;28;20040;-71
2023/08/05 02:21:47;;;;;;;5.15;3.15;;;14.30;99.90;;;;;;4998607;28;20112;-71
2023/08/05 02:24:12;;;;;;;5.93;3.15;;;14.30;99.90;;;;;;4986448;28;20050;-72
2023/08/05 02:26:38;;;;;;;8.40;3.08;;;14.30;99.90;;;;;;4961514;28;20475;-71
2023/08/05 02:29:04;;;;;;;6.32;3.30;;;14.20;99.90;;;;;;4968247;28;20080;-71
2023/08/05 02:31:32;;;;;;;9.38;3.38;;;14.20;99.90;;;;;;4970879;28;20112;-71
2023/08/05 02:33:57;;;;;;;6.55;3.50;;;14.20;99.90;;;;;;4969899;28;20460;-71
2023/08/05 02:36:23;;;;;;;8.65;3.65;;;14.20;99.90;;;;;;4985363;28;21598;-71
2023/08/05 02:38:48;;;;;;;7.57;2.93;;;14.20;99.90;;;;;;4966225;28;20049;-71
2023/08/05 02:41:14;;;;;;;6.72;3.45;;;14.20;99.90;;;;;;4964674;28;20915;-71
2023/08/05 02:43:40;;;;;;;5.45;2.85;;;14.20;99.90;;;;;;4962995;28;20060;-71
2023/08/05 02:46:08;;;;;;;7.00;3.20;;;14.20;99.90;;;;;;4962704;28;20076;-71
2023/08/05 02:48:34;;;;;;;6.05;3.22;;;14.20;99.90;;;;;;4971069;28;20282;-72
2023/08/05 02:51:00;;;;;;;5.43;2.85;;;14.30;99.90;;;;;;4967573;28;20489;-71
2023/08/05 02:53:26;;;;;;;6.97;3.50;;;14.30;99.90;;;;;;4970190;28;20049;-71
2023/08/05 02:55:51;;;;;;;5.78;3.38;;;14.30;99.90;;;;;;4959830;28;20472;-71
2023/08/05 02:58:18;;;;;;;5.60;2.92;;;14.40;99.90;;;;;;4968423;28;20047;-71
2023/08/05 03:00:44;;;;;;;6.80;3.47;;;14.40;99.90;;;;;;4967009;28;20133;-71
2023/08/05 03:03:10;;;;;;;;;;;14.40;99.90;;;;;;4966599;28;20046;-70
2023/08/05 03:05:39;;;;;;;6.45;3.17;;;14.40;99.90;;;;;;4972248;28;20460;-71
2023/08/05 03:08:05;;;;;;;8.65;3.60;;;14.40;99.90;;;;;;4973772;28;20061;-70
2023/08/05 03:10:30;;;;;;;10.02;3.40;;;14.40;99.90;;;;;;4969311;28;20768;-70
2023/08/05 03:12:56;;;;;;;9.50;3.85;;;14.40;99.90;;;;;;4991275;28;20037;-70
2023/08/05 03:15:22;;;;;;;6.78;3.30;;;14.50;99.90;;;;;;4968878;28;20046;-70
2023/08/05 03:17:47;;;;;;;9.82;4.30;;;14.50;99.90;;;;;;4970793;28;20081;-70
2023/08/05 03:20:29;;;;;;;9.65;3.88;;;14.50;99.90;;;;;;4993814;28;20045;-70
2023/08/05 03:22:55;;;;;;;7.07;3.70;;;14.50;99.90;;;;;;4993282;28;20165;-70
2023/08/05 03:25:22;;;;;;;8.05;3.55;;;14.50;99.90;;;;;;4989334;28;20045;-70
2023/08/05 03:27:49;;;;;;;5.97;3.35;;;14.50;99.90;;;;;;4993416;28;20050;-70
2023/08/05 03:30:15;;;;;;;7.13;3.22;;;14.50;99.90;;;;;;5010132;28;20099;-70
2023/08/05 03:32:43;;;;;;;7.80;3.42;;;14.50;99.90;;;;;;5008044;28;20038;-70
2023/08/05 03:35:08;;;;;;;5.40;3.30;;;14.50;99.90;;;;;;4991914;28;20046;-70
2023/08/05 03:37:34;;;;;;;7.22;3.60;;;14.50;99.90;;;;;;4988847;28;20471;-70
2023/08/05 03:40:02;;;;;;;6.10;3.22;;;14.50;99.90;;;;;;5011968;28;20111;-70
2023/08/05 03:42:28;;;;;;;6.75;3.15;;;14.50;99.90;;;;;;4985191;28;20408;-70
2023/08/05 03:44:56;;;;;;;6.25;3.05;;;14.50;99.90;;;;;;5001275;28;20061;-70
2023/08/05 03:47:22;;;;;;;7.50;3.10;;;14.60;99.90;;;;;;4985859;28;20053;-70
2023/08/05 03:49:48;;;;;;;7.25;3.05;;;14.50;99.90;;;;;;4988805;28;20054;-70
2023/08/05 03:52:14;;;;;;;7.13;3.30;;;14.60;99.90;;;;;;4986413;28;20069;-70
2023/08/05 03:54:40;;;;;;;8.98;2.95;;;14.60;99.90;;;;;;4987871;28;20107;-70
2023/08/05 03:57:08;;;;;;;5.50;2.60;;;14.60;99.90;;;;;;4987261;28;20121;-72
2023/08/05 03:59:37;;;;;;;6.63;3.15;;;14.60;99.90;;;;;;4988891;28;20464;-71
2023/08/05 04:02:03;;;;;;;7.18;3.67;;;14.60;99.90;;;;;;4986771;28;20046;-71
2023/08/05 04:04:29;;;;;;;;;;;14.60;99.90;;;;;;4987404;28;20159;-70
2023/08/05 04:06:54;;;;;;;5.40;3.05;;;14.60;99.90;;;;;;4993759;28;20295;-71
2023/08/05 04:09:21;;;;;;;7.13;2.67;;;14.60;99.90;;;;;;4996328;28;20072;-71
2023/08/05 04:11:50;;;;;;;6.97;2.50;;;14.60;99.90;;;;;;4993231;28;20053;-71
2023/08/05 04:14:19;;;;;;;6.15;2.60;;;14.60;99.90;;;;;;4990361;28;20061;-71
2023/08/05 04:16:47;;;;;;;6.45;2.50;;;14.60;99.90;;;;;;5002973;28;20062;-71
2023/08/05 04:19:16;;;;;;;9.38;2.83;;;14.60;99.90;;;;;;4990609;28;20519;-70
2023/08/05 04:21:46;;;;;;;5.50;2.55;;;14.60;99.90;;;;;;4997296;28;20261;-70
2023/08/05 04:24:13;;;;;;;5.90;1.98;;;14.60;99.90;;;;;;4989425;28;20321;-70
2023/08/05 04:26:40;;;;;;;5.50;2.45;;;14.60;99.90;;;;;;4989836;28;20033;-71
2023/08/05 04:29:06;;;;;;;4.40;2.38;;;14.60;99.90;;;;;;5007526;28;20040;-71
2023/08/05 04:31:32;;;;;;;;;;;14.70;99.90;;;;;;5001652;28;20124;-70
2023/08/05 04:33:58;;;;;;;4.75;2.08;;;14.60;99.90;;;;;;4990361;28;20012;-71
2023/08/05 04:36:23;;;;;;;6.15;2.28;;;14.70;99.90;;;;;;4995264;28;20399;-70
2023/08/05 04:38:49;;;;;;;4.50;2.45;;;14.70;99.90;;;;;;5007908;28;20120;-71
2023/08/05 04:41:15;;;;;;;5.75;2.65;;;14.70;99.90;;;;;;5005158;28;20087;-71
2023/08/05 04:43:40;;;;;;;4.90;2.47;;;14.80;99.90;;;;;;4989579;28;20046;-71
2023/08/05 04:46:06;;;;;;;6.65;2.38;;;14.80;99.90;;;;;;4982441;28;20140;-70
2023/08/05 04:48:32;;;;;;;7.18;2.28;;;14.80;99.90;;;;;;4980582;28;20563;-70
2023/08/05 04:50:57;;;;;;;4.38;2.30;;;14.90;99.90;;;;;;4987479;28;20052;-71
2023/08/05 04:53:23;;;;;;;4.20;2.10;;;14.90;99.90;;;;;;4988566;28;20052;-70
2023/08/05 04:55:49;;;;;;;7.97;2.30;;;14.90;99.90;;;;;;4989375;28;20077;-71
2023/08/05 04:58:14;;;;;;;7.13;2.50;;;15.00;99.90;;;;;;4993547;28;20060;-71
2023/08/05 05:00:40;;;;;;;7.15;2.60;;;15.00;99.90;;;;;;4987040;28;20161;-71
2023/08/05 05:03:07;;;;;;;5.80;2.88;;;15.10;99.90;;;;;;4995641;28;20060;-70
2023/08/05 05:05:34;;;;;;;6.45;3.30;;;15.10;99.90;;;;;;4986053;28;20057;-71
2023/08/05 05:08:00;;;;;;;7.28;2.72;;;15.10;99.90;;;;;;5004566;28;20516;-71
2023/08/05 05:10:25;;;;;;;4.97;2.85;;;15.20;99.90;;;;;;4986418;28;20134;-71
2023/08/05 05:12:51;;;;;;;5.30;2.35;;;15.20;99.90;;;;;;4982693;28;20433;-71
2023/08/05 05:15:19;;;;;;;4.20;2.20;;;15.20;99.90;;;;;;4999736;28;20534;-71
2023/08/05 05:17:45;;;;;;;7.45;2.40;;;15.30;99.90;;;;;;4986119;28;20050;-70
2023/08/05 05:20:11;;;;;;;4.10;2.55;;;15.30;99.90;;;;;;4987452;28;20064;-71
2023/08/05 05:22:39;;;;;;;5.05;2.38;;;15.30;99.90;;;;;;5003621;28;20498;-71
2023/08/05 05:25:05;;;;;;;4.78;2.65;;;15.30;99.90;;;;;;4986498;28;20042;-71
2023/08/05 05:27:31;;;;;;;;;;;15.40;99.90;;;;;;4982134;28;20057;-70
2023/08/05 05:29:56;;;;;;;8.70;2.88;;;15.40;99.90;;;;;;5003043;28;20308;-71
2023/08/05 05:32:22;;;;;;;7.20;2.85;;;15.30;99.90;;;;;;4984016;28;20453;-71
2023/08/05 05:34:48;;;;;;;6.05;2.50;;;15.40;99.90;;;;;;4987712;28;20058;-71
2023/08/05 05:37:13;;;;;;;5.63;2.38;;;15.40;99.90;;;;;;4986936;28;20049;-70
2023/08/05 05:39:40;;;;;;;5.20;2.30;;;15.40;99.90;;;;;;5002891;28;20388;-71
2023/08/05 05:42:06;;;;;;;5.05;1.90;;;15.50;99.90;;;;;;4985681;28;20045;-71
2023/08/05 05:44:31;;;;;;;6.57;2.00;;;15.50;99.90;;;;;;5000551;28;20509;-71
2023/08/05 05:46:57;;;;;;;4.43;1.90;;;15.60;99.90;;;;;;5001175;28;20511;-71
2023/08/05 05:49:23;;;;;;;6.70;2.13;;;15.60;99.90;;;;;;5010662;28;20407;-71
2023/08/05 05:51:49;;;;;;;7.28;1.83;;;15.60;99.90;;;;;;5000476;28;20487;-70
2023/08/05 05:54:15;;;;;;;3.33;2.08;;;15.70;99.90;;;;;;4977515;28;20499;-71
2023/08/05 05:56:40;;;;;;;5.18;1.88;;;15.70;99.90;;;;;;4989044;28;20384;-70
2023/08/05 05:59:06;;;;;;;5.57;2.00;;;15.70;99.90;;;;;;4985318;28;20108;-71
2023/08/05 06:01:31;;;;;;;4.47;1.85;;;15.70;99.90;;;;;;4980466;28;20120;-71
2023/08/05 06:03:57;;;;;;;6.97;2.38;;;15.70;99.90;;;;;;4990906;28;20056;-71
2023/08/05 06:06:23;;;;;;;4.10;2.25;;;15.70;99.90;;;;;;4984883;28;20534;-70
2023/08/05 06:08:49;;;;;;;4.15;1.73;;;15.70;99.90;;;;;;4984396;28;20045;-70
2023/08/05 06:11:14;;;;;;;3.90;1.63;;;15.70;99.90;;;;;;4989762;28;20053;-71
2023/08/05 06:13:40;;;;;;;4.13;1.73;;;15.70;99.90;;;;;;4990882;28;20111;-71
2023/08/05 06:16:06;;;;;;;5.93;1.50;;;15.70;99.90;;;;;;4987371;28;20045;-71
2023/08/05 06:18:31;;;;;;;4.45;1.80;;;15.80;99.90;;;;;;5006085;28;20046;-71
2023/08/05 06:20:57;;;;;;;2.65;1.40;;;15.90;99.90;;;;;;5006151;28;20468;-70
2023/08/05 06:23:22;;;;;;;4.53;1.98;;;15.90;99.90;;;;;;5001657;28;20040;-70
2023/08/05 06:25:48;;;;;;;5.85;2.20;;;15.90;99.90;;;;;;5003810;28;20042;-70
2023/08/05 06:28:14;;;;;;;6.13;2.35;;;16.00;99.90;;;;;;4991823;28;20440;-71
2023/08/05 06:30:49;;;;;;;3.03;1.90;;;16.00;99.90;;;;;;4997678;28;20069;-70
2023/08/05 06:33:15;;;;;;;3.58;1.73;;;16.10;99.90;;;;;;4992269;28;20084;-70
2023/08/05 06:35:41;;;;;;;3.22;2.00;;;16.10;99.90;;;;;;5008128;28;20078;-70
2023/08/05 06:38:06;;;;;;;5.47;1.70;;;16.10;99.90;;;;;;4987208;28;20303;-70
2023/08/05 06:40:32;;;;;;;5.78;1.55;;;16.20;99.90;;;;;;4987570;28;20078;-71
2023/08/05 06:42:58;;;;;;;3.28;1.30;;;16.20;99.90;;;;;;4985552;28;20065;-70
2023/08/05 06:45:23;;;;;;;6.28;1.98;;;16.20;99.90;;;;;;4988182;28;20145;-71
2023/08/05 06:47:49;;;;;;;4.13;1.70;;;16.30;99.90;;;;;;4987224;28;20407;-71
2023/08/05 06:50:15;;;;;;;4.30;1.50;;;16.30;99.90;;;;;;4963304;28;20034;-71
2023/08/05 06:52:41;;;;;;;4.05;1.70;;;16.30;99.90;;;;;;5001161;28;20419;-71
2023/08/05 06:55:08;;;;;;;3.40;1.38;;;16.40;99.90;;;;;;4990942;28;20105;-71
2023/08/05 06:57:34;;;;;;;3.58;1.42;;;16.40;99.90;;;;;;4990519;28;20171;-71
2023/08/05 07:00:00;;;;;;;4.43;2.05;;;16.40;99.90;;;;;;4990891;28;20048;-71
2023/08/05 07:02:26;;;;;;;4.03;2.03;;;16.50;99.90;;;;;;5004004;28;20050;-71
2023/08/05 07:04:53;;;;;;;2.22;1.20;;;16.50;99.90;;;;;;4974036;28;20065;-71
2023/08/05 07:07:19;;;;;;;4.07;1.40;;;16.50;99.90;;;;;;5007713;28;20426;-72
2023/08/05 07:09:45;;;;;;;;;;;16.50;99.90;;;;;;4988013;28;20215;-70
2023/08/05 07:12:10;;;;;;;2.67;1.13;;;16.50;99.90;;;;;;4987782;28;20037;-78
2023/08/05 07:14:36;;;;;;;3.40;1.35;;;16.50;99.90;;;;;;4973680;28;20080;-72
2023/08/05 07:17:02;;;;;;;4.13;2.03;;;16.60;99.90;;;;;;4989164;28;20515;-71
2023/08/05 07:19:33;;;;;;;4.00;1.40;;;16.50;99.90;;;;;;4989373;28;20384;-71
2023/08/05 07:21:59;;;;;;;5.95;1.40;;;16.60;99.90;;;;;;5006472;28;20049;-73
2023/08/05 07:24:24;;;;;;;4.20;0.90;;;16.60;99.90;;;;;;4982479;28;20098;-72
2023/08/05 07:26:50;;;;;;;5.22;1.55;;;16.70;99.90;;;;;;4992057;28;20046;-72
2023/08/05 07:29:16;;;;;;;4.00;1.40;;;16.80;99.90;;;;;;4972568;28;20042;-72
2023/08/05 07:31:41;;;;;;;6.30;1.50;;;16.80;99.90;;;;;;4979604;28;20485;-71
2023/08/05 07:34:09;;;;;;;4.07;1.65;;;16.80;99.90;;;;;;4983680;28;20053;-71
2023/08/05 07:36:35;;;;;;;3.55;1.60;;;17.00;99.90;;;;;;4986582;28;20149;-71
2023/08/05 07:39:06;;;;;;;;;;;17.00;99.90;;;;;;5001875;28;20049;-71
2023/08/05 07:41:32;;;;;;;2.78;1.00;;;17.00;99.90;;;;;;4990914;28;19925;-71
2023/08/05 07:43:58;;;;;;;4.70;1.50;;;17.10;99.90;;;;;;4988666;28;20097;-71
2023/08/05 07:46:30;;;;;;;5.22;1.58;;;17.20;99.90;;;;;;5001132;28;20080;-72
2023/08/05 07:48:58;;;;;;;3.88;1.60;;;17.30;99.90;;;;;;4989699;28;20057;-72
2023/08/05 07:51:24;;;;;;;3.63;1.20;;;17.30;99.90;;;;;;4990807;28;20430;-71
2023/08/05 07:53:52;;;;;;;3.08;1.30;;;17.40;99.90;;;;;;4990913;28;20126;-72
2023/08/05 07:56:17;;;;;;;5.70;1.50;;;17.40;99.90;;;;;;5007053;28;20071;-71
2023/08/05 07:58:47;;;;;;;4.30;1.27;;;17.50;99.90;;;;;;4987200;28;20503;-71
2023/08/05 08:01:17;;;;;;;4.43;1.70;;;17.50;99.90;;;;;;4989910;28;20049;-72
2023/08/05 08:03:43;;;;;;;3.10;1.42;;;17.60;99.90;;;;;;4984977;28;20048;-71
2023/08/05 08:06:14;;;;;;;5.60;1.30;;;17.70;99.90;;;;;;4989126;28;20037;-72
2023/08/05 08:08:39;;;;;;;3.72;1.58;;;17.70;99.90;;;;;;4996229;28;20071;-71
2023/08/05 08:11:05;;;;;;;3.70;1.60;;;17.70;99.90;;;;;;4989827;28;20052;-71
2023/08/05 08:13:31;;;;;;;6.38;1.45;;;17.70;99.90;;;;;;4988542;28;20130;-72
2023/08/05 08:15:57;;;;;;;5.97;1.20;;;17.70;99.90;;;;;;4987555;28;20042;-72
2023/08/05 08:18:22;;;;;;;2.72;1.60;;;17.80;99.90;;;;;;4995933;28;20049;-71
2023/08/05 08:20:49;;;;;;;2.63;1.42;;;17.80;99.90;;;;;;4984549;28;20037;-72
2023/08/05 08:23:15;;;;;;;2.20;1.38;;;17.80;99.90;;;;;;4988633;28;20141;-71
2023/08/05 08:25:41;;;;;;;2.78;1.50;;;17.80;99.90;;;;;;5002785;28;20069;-71
2023/08/05 08:28:06;;;;;;;2.58;1.45;;;17.90;99.90;;;;;;4992719;28;20081;-71
2023/08/05 08:30:32;;;;;;;4.75;1.80;;;17.90;99.90;;;;;;5002094;28;20069;-73
2023/08/05 08:33:00;;;;;;;5.40;1.65;;;17.90;99.90;;;;;;4976979;28;20104;-72
2023/08/05 08:35:26;;;;;;;3.47;1.48;;;18.00;99.90;;;;;;4993067;28;20143;-72
2023/08/05 08:37:51;;;;;;;4.65;1.63;;;18.10;99.90;;;;;;4989458;28;20128;-72
2023/08/05 08:40:18;;;;;;;6.03;1.70;;;18.20;99.90;;;;;;4985423;28;20088;-72
2023/08/05 08:42:44;;;;;;;3.15;1.58;;;18.20;99.90;;;;;;4982967;28;20070;-72
2023/08/05 08:45:11;;;;;;;;;;;18.30;99.90;;;;;;4976062;28;20377;-72
2023/08/05 08:47:38;;;;;;;2.53;1.02;;;18.30;99.90;;;;;;4986115;28;20290;-72
2023/08/05 08:50:04;;;;;;;6.40;1.55;;;18.30;99.90;;;;;;4985194;28;20396;-72
2023/08/05 08:52:31;;;;;;;3.30;1.63;;;18.30;99.90;;;;;;4984873;28;20042;-72
2023/08/05 08:54:59;;;;;;;1.88;0.95;;;18.30;99.90;;;;;;4988689;28;20046;-72
2023/08/05 08:57:25;;;;;;;5.00;1.85;;;18.40;99.90;;;;;;4989676;28;20168;-72
2023/08/05 08:59:51;;;;;;;6.28;1.60;;;18.40;99.90;;;;;;4973719;28;20531;-72
2023/08/05 09:02:35;;;;;;;4.18;1.38;;;18.40;99.90;;;;;;5005415;28;20108;-72
2023/08/05 09:05:02;;;;;;;4.38;1.50;;;18.50;99.90;;;;;;4988091;28;20045;-72
2023/08/05 09:07:29;;;;;;;4.28;1.50;;;18.50;99.90;;;;;;4992681;28;20394;-72
2023/08/05 09:09:54;;;;;;;;;;;18.60;99.90;;;;;;4985698;28;20090;-72
2023/08/05 09:12:20;;;;;;;4.88;1.45;;;18.60;99.90;;;;;;4989817;28;19926;-72
2023/08/05 09:14:53;;;;;;;2.55;1.23;;;18.60;99.90;;;;;;4975214;28;20050;-72
2023/08/05 09:17:18;;;;;;;6.45;1.60;;;18.60;99.90;;;;;;4994293;28;20062;-72
2023/08/05 09:19:44;;;;;;;5.30;1.50;;;18.60;99.90;;;;;;4988118;28;20042;-72
2023/08/05 09:22:12;;;;;;;3.05;1.55;;;18.70;99.90;;;;;;4989221;28;20435;-72
2023/08/05 09:24:37;;;;;;;4.03;1.25;;;18.80;99.90;;;;;;4988038;28;20056;-72
2023/08/05 09:27:03;;;;;;;2.33;1.27;;;18.90;99.90;;;;;;4990933;28;20392;-72
2023/08/05 09:29:29;;;;;;;2.13;1.15;;;19.10;99.90;;;;;;4987351;28;20072;-74
2023/08/05 09:31:58;;;;;;;2.50;1.38;;;19.10;99.90;;;;;;4989504;28;20158;-72
2023/08/05 09:34:35;;;;;;;4.55;1.23;;;19.20;99.90;;;;;;5006860;28;20471;-72
2023/08/05 09:37:02;;;;;;;2.17;1.10;;;19.20;99.90;;;;;;4984763;28;20053;-72
2023/08/05 09:39:43;;;;;;;4.55;1.65;;;19.30;99.90;;;;;;4988283;28;20579;-72
2023/08/05 09:42:23;;;;;;;4.05;1.35;;;19.40;99.90;;;;;;4989035;28;20461;-71
2023/08/05 09:44:49;;;;;;;2.45;1.30;;;19.60;99.90;;;;;;4992429;28;20049;-72
2023/08/05 09:47:20;;;;;;;3.95;1.05;;;19.70;99.90;;;;;;4987050;28;20038;-71
2023/08/05 09:49:52;;;;;;;2.42;1.08;;;19.80;99.90;;;;;;5008732;28;20038;-72
2023/08/05 09:52:20;;;;;;;4.13;1.65;;;19.90;99.90;;;;;;4982894;28;20124;-73
2023/08/05 09:54:59;;;;;;;4.97;1.52;;;19.90;99.90;;;;;;4988847;28;20451;-73
2023/08/05 09:57:26;;;;;;;2.63;1.27;;;19.80;99.90;;;;;;4973475;28;20042;-72
2023/08/05 09:59:57;;;;;;;2.47;1.30;;;19.70;99.90;;;;;;5005684;28;20045;-73
2023/08/05 10:02:25;;;;;;;2.47;1.33;;;19.80;99.90;;;;;;4997438;28;20419;-72
2023/08/05 10:04:54;;;;;;;3.70;2.30;;;19.70;99.90;;;;;;5005366;28;20188;-72
2023/08/05 10:07:24;;;;;;;3.35;1.45;;;19.70;99.90;;;;;;4987743;28;20492;-72
2023/08/05 10:09:52;;;;;;;2.50;1.45;;;19.60;99.90;;;;;;4978492;28;20037;-72
2023/08/05 10:12:22;;;;;;;3.30;1.40;;;19.60;99.90;;;;;;4986220;28;20057;-72
2023/08/05 10:14:49;;;;;;;2.08;1.30;;;19.70;99.90;;;;;;4988514;28;20360;-72
2023/08/05 10:17:17;;;;;;;5.82;1.52;;;19.80;99.90;;;;;;4986771;28;20064;-72
2023/08/05 10:19:50;;;;;;;5.22;1.77;;;20.00;99.90;;;;;;4991012;28;20174;-72
2023/08/05 10:22:24;;;;;;;3.38;1.63;;;20.10;99.90;;;;;;4987965;28;20039;-72
2023/08/05 10:24:58;;;;;;;1.92;1.17;;;20.30;99.90;;;;;;4998933;28;20139;-72
2023/08/05 10:27:43;;;;;;;2.97;1.30;;;20.40;99.90;;;;;;4986730;28;20598;-72
2023/08/05 10:30:14;;;;;;;3.00;1.40;;;20.60;99.90;;;;;;4985380;28;20038;-72
2023/08/05 10:32:51;;;;;;;3.15;1.50;;;20.80;99.90;;;;;;4986578;28;20042;-72
2023/08/05 10:35:39;;;;;;;;;;;20.90;99.90;;;;;;4988088;28;20173;-72
2023/08/05 10:38:08;;;;;;;3.97;1.20;;;20.90;99.90;;;;;;4982660;28;19957;-72
2023/08/05 10:40:51;;;;;;;3.90;1.33;;;20.90;99.90;;;;;;4990644;28;20124;-72
2023/08/05 10:43:27;;;;;;;3.83;1.58;;;20.90;99.90;;;;;;4978329;28;20431;-72
2023/08/05 10:45:56;;;;;;;2.45;1.10;;;20.80;99.90;;;;;;4987570;28;20050;-72
2023/08/05 10:48:34;;;;;;;2.92;1.50;;;20.70;99.90;;;;;;4986470;28;20377;-72
2023/08/05 10:51:12;;;;;;;4.30;1.70;;;20.60;99.90;;;;;;4983951;28;20057;-72
2023/08/05 10:53:38;;;;;;;2.45;1.23;;;20.50;99.90;;;;;;4979974;28;20349;-72
2023/08/05 10:56:07;;;;;;;;;;;20.40;99.90;;;;;;5007897;28;20048;-72
2023/08/05 10:58:35;;;;;;;2.65;1.20;;;20.40;99.90;;;;;;4985157;28;19924;-73
2023/08/05 11:01:05;;;;;;;5.25;1.90;;;20.40;99.90;;;;;;4992665;28;20046;-73
2023/08/05 11:03:32;;;;;;;4.97;1.40;;;20.30;99.90;;;;;;4986733;28;20441;-72
2023/08/05 11:06:03;;;;;;;2.33;1.60;;;20.30;99.90;;;;;;4971617;28;20113;-72
2023/08/05 11:08:30;;;;;;;2.47;1.40;;;20.20;99.90;;;;;;4986289;28;20046;-74
2023/08/05 11:10:59;;;;;;;3.67;1.67;;;20.10;99.90;;;;;;4983645;28;20619;-72
2023/08/05 11:13:25;;;;;;;4.28;1.77;;;20.00;99.90;;;;;;5005263;28;20116;-72
2023/08/05 11:16:07;;;;;;;;;;;20.00;99.90;;;;;;4983695;28;20044;-72
2023/08/05 11:18:33;;;;;;;3.40;1.90;;;19.90;99.90;;;;;;5003020;28;19921;-72
2023/08/05 11:21:01;;;;;;;2.97;1.88;;;19.90;99.90;;;;;;4987441;28;20140;-72
2023/08/05 11:23:27;;;;;;;4.88;1.67;;;20.00;99.90;;;;;;4991558;28;20122;-72
2023/08/05 11:25:53;;;;;;;;;;;20.10;99.90;;;;;;4989169;28;20077;-72
2023/08/05 11:28:20;;;;;;;2.63;1.80;;;20.10;99.90;;;;;;5014598;23;19987;-70
2023/08/05 11:30:46;;;;;;;3.28;1.67;;;20.10;99.90;;;;;;5029970;28;20128;-70
2023/08/05 11:33:11;;;;;;;2.60;1.55;;;20.20;99.90;;;;;;5014078;28;20191;-70
2023/08/05 11:35:45;;;;;;;4.47;1.80;;;20.20;99.90;;;;;;5020280;28;20498;-70
2023/08/05 11:38:22;;;;;;;3.85;2.08;;;20.20;99.90;;;;;;5029189;28;20041;-70
2023/08/05 11:40:48;;;;;;;;;;;20.20;99.90;;;;;;5016369;28;20073;-70
2023/08/05 11:43:16;;;;;;;2.53;1.70;;;20.10;99.90;;;;;;5025689;28;19924;-70
2023/08/05 11:45:42;;;;;;;3.45;2.00;;;20.00;99.90;;;;;;5010669;28;20287;-70
2023/08/05 11:48:26;;;;;;;3.90;1.83;;;20.00;99.90;;;;;;5023633;28;20037;-70
2023/08/05 11:50:58;;;;;;;4.35;1.83;;;19.90;99.90;;;;;;5003449;28;20037;-70
2023/08/05 11:53:25;;;;;;;4.13;1.77;;;19.90;99.90;;;;;;5005839;28;20303;-70
2023/08/05 11:55:51;;;;;;;6.47;2.10;;;20.00;99.90;;;;;;5023404;28;20084;-70
2023/08/05 11:58:16;;;;;;;3.53;1.88;;;20.00;99.90;;;;;;5011764;28;20087;-71
2023/08/05 12:00:47;;;;;;;3.67;1.90;;;19.90;99.90;;;;;;5007361;28;20559;-70
2023/08/05 12:03:13;;;;;;;2.95;1.92;;;19.90;99.90;;;;;;5021178;28;20132;-70
2023/08/05 12:05:43;;;;;;;3.53;1.77;;;19.90;99.90;;;;;;5005572;28;20564;-70
2023/08/05 12:08:10;;;;;;;4.18;2.53;;;19.90;99.90;;;;;;5022631;28;20045;-70
2023/08/05 12:10:36;;;;;;;3.70;1.90;;;19.90;99.90;;;;;;5008408;28;20053;-70
2023/08/05 12:13:04;;;;;;;6.30;2.22;;;19.90;99.90;;;;;;5013095;28;20251;-70
2023/08/05 12:15:30;;;;;;;3.22;1.90;;;19.90;99.90;;;;;;5005461;28;20443;-70
2023/08/05 12:17:56;;;;;;;3.78;2.22;;;19.80;99.90;;;;;;5009215;28;20045;-70
2023/08/05 12:20:24;;;;;;;3.58;1.63;;;19.80;99.90;;;;;;5009505;28;20045;-70
2023/08/05 12:22:51;;;;;;;4.05;2.25;;;19.70;99.90;;;;;;5015402;28;20491;-70
2023/08/05 12:25:20;;;;;;;6.25;2.53;;;19.70;99.90;;;;;;5023077;28;20144;-70
2023/08/05 12:27:46;;;;;;;4.22;2.33;;;19.60;99.90;;;;;;5011655;28;20348;-70
2023/08/05 12:30:12;;;;;;;4.43;3.03;;;19.60;99.90;;;;;;5023616;28;20491;-70
2023/08/05 12:32:39;;;;;;;5.22;3.17;;;19.60;99.90;;;;;;5003496;28;20420;-70
2023/08/05 12:35:06;;;;;;;3.83;2.50;;;19.60;99.90;;;;;;5000145;28;20046;-70
2023/08/05 12:37:36;;;;;;;3.88;2.40;;;19.60;99.90;;;;;;5003137;28;20045;-70
2023/08/05 12:40:07;;;;;;;11.23;3.25;;;19.60;99.90;;;;;;5011428;28;20506;-70
2023/08/05 12:42:33;;;;;;;5.25;3.20;;;19.60;99.90;;;;;;5011312;28;20057;-70
2023/08/05 12:45:03;;;;;;;7.93;2.90;;;19.50;99.90;;;;;;5002986;28;20045;-70
2023/08/05 12:47:29;;;;;;;4.97;3.40;;;19.50;99.90;;;;;;4987060;28;20056;-70
2023/08/05 12:49:54;;;;;;;6.65;3.70;;;19.50;99.90;;;;;;5016081;28;20048;-70
2023/08/05 12:52:20;;;;;;;6.75;3.30;;;19.50;99.90;;;;;;5019070;28;20041;-70